sensor_id;sensor_type;location;lat;lon;timestamp;pressure;altitude;pressure_sealevel;temperature;humidity
16461;BME280;8341;42.048;24.650;2023-02-20T00:01:52;97391.84;;;14.25;43.83
16461;BME280;8341;42.048;24.650;2023-02-20T00:04:19;97396.06;;;14.26;44.14
16461;BME280;8341;42.048;24.650;2023-02-20T00:06:46;97390.31;;;14.24;43.69
16461;BME280;8341;42.048;24.650;2023-02-20T00:09:15;97397.31;;;14.30;44.16
16461;BME280;8341;42.048;24.650;2023-02-20T00:11:41;97393.28;;;14.20;44.00
16461;BME280;8341;42.048;24.650;2023-02-20T00:14:08;97399.25;;;14.13;44.49
16461;BME280;8341;42.048;24.650;2023-02-20T00:16:35;97402.50;;;14.12;44.40
16461;BME280;8341;42.048;24.650;2023-02-20T00:19:02;97400.44;;;14.01;44.82
16461;BME280;8341;42.048;24.650;2023-02-20T00:21:28;97401.94;;;14.02;44.71
16461;BME280;8341;42.048;24.650;2023-02-20T00:23:55;97398.94;;;14.00;44.63
16461;BME280;8341;42.048;24.650;2023-02-20T00:26:23;97404.38;;;13.95;45.33
16461;BME280;8341;42.048;24.650;2023-02-20T00:28:50;97413.09;;;13.93;45.29
16461;BME280;8341;42.048;24.650;2023-02-20T00:31:17;97414.09;;;13.90;45.19
16461;BME280;8341;42.048;24.650;2023-02-20T00:33:44;97408.31;;;13.82;45.32
16461;BME280;8341;42.048;24.650;2023-02-20T00:36:14;97428.75;;;13.87;45.27
16461;BME280;8341;42.048;24.650;2023-02-20T00:38:41;97421.59;;;13.95;44.82
16461;BME280;8341;42.048;24.650;2023-02-20T00:41:08;97415.00;;;13.76;45.37
16461;BME280;8341;42.048;24.650;2023-02-20T00:43:37;97422.81;;;13.89;45.30
16461;BME280;8341;42.048;24.650;2023-02-20T00:46:04;97428.50;;;13.85;45.24
16461;BME280;8341;42.048;24.650;2023-02-20T00:48:31;97421.50;;;13.84;45.30
16461;BME280;8341;42.048;24.650;2023-02-20T00:50:57;97425.50;;;13.83;45.66
16461;BME280;8341;42.048;24.650;2023-02-20T00:53:24;97428.00;;;13.81;45.29
16461;BME280;8341;42.048;24.650;2023-02-20T00:55:51;97426.69;;;13.76;45.56
16461;BME280;8341;42.048;24.650;2023-02-20T00:58:18;97432.47;;;13.78;45.10
16461;BME280;8341;42.048;24.650;2023-02-20T01:00:46;97417.75;;;13.81;45.18
16461;BME280;8341;42.048;24.650;2023-02-20T01:03:12;97412.72;;;13.74;45.87
16461;BME280;8341;42.048;24.650;2023-02-20T01:05:39;97417.19;;;13.72;45.81
16461;BME280;8341;42.048;24.650;2023-02-20T01:08:06;97412.44;;;13.67;45.60
16461;BME280;8341;42.048;24.650;2023-02-20T01:10:33;97418.41;;;13.65;45.81
16461;BME280;8341;42.048;24.650;2023-02-20T01:12:59;97410.19;;;13.65;45.57
16461;BME280;8341;42.048;24.650;2023-02-20T01:15:26;97419.66;;;13.64;45.84
16461;BME280;8341;42.048;24.650;2023-02-20T01:17:54;97413.38;;;13.58;46.24
16461;BME280;8341;42.048;24.650;2023-02-20T01:20:21;97407.88;;;13.53;46.01
16461;BME280;8341;42.048;24.650;2023-02-20T01:22:48;97410.66;;;13.58;46.15
16461;BME280;8341;42.048;24.650;2023-02-20T01:25:15;97407.41;;;13.60;46.28
16461;BME280;8341;42.048;24.650;2023-02-20T01:27:42;97418.59;;;13.56;46.04
16461;BME280;8341;42.048;24.650;2023-02-20T01:30:09;97413.16;;;13.62;46.54
16461;BME280;8341;42.048;24.650;2023-02-20T01:32:36;97425.78;;;13.54;46.63
16461;BME280;8341;42.048;24.650;2023-02-20T01:35:05;97423.31;;;13.56;46.25
16461;BME280;8341;42.048;24.650;2023-02-20T01:37:32;97432.78;;;13.55;46.52
16461;BME280;8341;42.048;24.650;2023-02-20T01:39:59;97434.00;;;13.54;46.45
16461;BME280;8341;42.048;24.650;2023-02-20T01:42:29;97439.06;;;13.61;46.35
16461;BME280;8341;42.048;24.650;2023-02-20T01:47:54;97432.06;;;13.60;46.70
16461;BME280;8341;42.048;24.650;2023-02-20T01:50:25;97430.31;;;13.57;46.50
16461;BME280;8341;42.048;24.650;2023-02-20T01:52:55;97432.47;;;13.47;46.74
16461;BME280;8341;42.048;24.650;2023-02-20T01:55:26;97422.22;;;13.42;47.24
16461;BME280;8341;42.048;24.650;2023-02-20T01:57:58;97426.25;;;13.47;47.30
16461;BME280;8341;42.048;24.650;2023-02-20T02:00:26;97423.44;;;13.41;47.36
16461;BME280;8341;42.048;24.650;2023-02-20T02:02:56;97424.66;;;13.35;47.75
16461;BME280;8341;42.048;24.650;2023-02-20T02:05:27;97429.31;;;13.29;47.54
16461;BME280;8341;42.048;24.650;2023-02-20T02:07:55;97433.03;;;13.26;47.97
16461;BME280;8341;42.048;24.650;2023-02-20T02:10:25;97426.28;;;13.21;48.18
16461;BME280;8341;42.048;24.650;2023-02-20T02:12:55;97434.22;;;13.19;48.24
16461;BME280;8341;42.048;24.650;2023-02-20T02:15:23;97447.09;;;13.13;48.76
16461;BME280;8341;42.048;24.650;2023-02-20T02:18:01;97444.13;;;13.11;48.64
16461;BME280;8341;42.048;24.650;2023-02-20T02:21:00;97425.06;;;13.02;49.13
16461;BME280;8341;42.048;24.650;2023-02-20T02:33:13;97472.41;;;12.82;50.06
16461;BME280;8341;42.048;24.650;2023-02-20T02:36:16;97472.66;;;12.84;49.43
16461;BME280;8341;42.048;24.650;2023-02-20T02:38:51;97486.78;;;12.77;49.80
16461;BME280;8341;42.048;24.650;2023-02-20T02:41:24;97501.13;;;12.72;50.11
16461;BME280;8341;42.048;24.650;2023-02-20T02:43:58;97481.50;;;12.74;50.02
16461;BME280;8341;42.048;24.650;2023-02-20T02:46:28;97485.41;;;12.67;50.14
16461;BME280;8341;42.048;24.650;2023-02-20T02:49:02;97494.16;;;12.71;50.25
16461;BME280;8341;42.048;24.650;2023-02-20T02:51:36;97507.31;;;12.67;50.28
16461;BME280;8341;42.048;24.650;2023-02-20T02:54:10;97515.44;;;12.62;50.33
16461;BME280;8341;42.048;24.650;2023-02-20T02:56:39;97497.72;;;12.57;50.63
16461;BME280;8341;42.048;24.650;2023-02-20T02:59:09;97500.47;;;12.57;50.63
16461;BME280;8341;42.048;24.650;2023-02-20T03:01:40;97508.66;;;12.57;51.08
16461;BME280;8341;42.048;24.650;2023-02-20T03:04:09;97521.50;;;12.51;51.19
16461;BME280;8341;42.048;24.650;2023-02-20T03:06:41;97537.25;;;12.56;51.13
16461;BME280;8341;42.048;24.650;2023-02-20T03:09:12;97539.72;;;12.54;51.15
16461;BME280;8341;42.048;24.650;2023-02-20T03:11:41;97542.00;;;12.55;51.26
16461;BME280;8341;42.048;24.650;2023-02-20T03:14:12;97539.19;;;12.50;51.31
16461;BME280;8341;42.048;24.650;2023-02-20T03:17:03;97541.34;;;12.46;51.23
16461;BME280;8341;42.048;24.650;2023-02-20T03:19:35;97537.78;;;12.40;51.51
16461;BME280;8341;42.048;24.650;2023-02-20T03:22:08;97515.91;;;12.40;51.34
16461;BME280;8341;42.048;24.650;2023-02-20T03:24:36;97521.09;;;12.38;51.55
16461;BME280;8341;42.048;24.650;2023-02-20T03:27:21;97525.25;;;12.33;52.00
16461;BME280;8341;42.048;24.650;2023-02-20T03:29:51;97519.03;;;12.33;51.64
16461;BME280;8341;42.048;24.650;2023-02-20T03:32:24;97534.72;;;12.32;51.82
16461;BME280;8341;42.048;24.650;2023-02-20T03:35:10;97527.72;;;12.31;51.86
16461;BME280;8341;42.048;24.650;2023-02-20T03:37:59;97521.91;;;12.24;51.72
16461;BME280;8341;42.048;24.650;2023-02-20T03:40:46;97541.50;;;12.22;51.59
16461;BME280;8341;42.048;24.650;2023-02-20T03:43:31;97539.53;;;12.23;51.51
16461;BME280;8341;42.048;24.650;2023-02-20T03:46:03;97539.25;;;12.21;51.66
16461;BME280;8341;42.048;24.650;2023-02-20T03:48:35;97536.25;;;12.19;51.49
16461;BME280;8341;42.048;24.650;2023-02-20T03:51:05;97531.31;;;12.23;51.49
16461;BME280;8341;42.048;24.650;2023-02-20T03:53:34;97541.03;;;12.24;51.33
16461;BME280;8341;42.048;24.650;2023-02-20T03:56:03;97548.03;;;12.25;51.58
16461;BME280;8341;42.048;24.650;2023-02-20T03:58:33;97558.97;;;12.25;51.24
16461;BME280;8341;42.048;24.650;2023-02-20T04:01:04;97557.25;;;12.27;51.41
16461;BME280;8341;42.048;24.650;2023-02-20T04:03:34;97561.47;;;12.28;51.22
16461;BME280;8341;42.048;24.650;2023-02-20T04:06:05;97560.72;;;12.28;50.91
16461;BME280;8341;42.048;24.650;2023-02-20T04:08:37;97564.31;;;12.34;51.06
16461;BME280;8341;42.048;24.650;2023-02-20T04:11:07;97571.28;;;12.35;50.77
16461;BME280;8341;42.048;24.650;2023-02-20T04:13:37;97565.81;;;12.35;50.66
16461;BME280;8341;42.048;24.650;2023-02-20T04:16:05;97570.72;;;12.31;50.88
16461;BME280;8341;42.048;24.650;2023-02-20T04:18:33;97567.81;;;12.20;51.36
16461;BME280;8341;42.048;24.650;2023-02-20T04:21:02;97583.28;;;12.23;51.35
16461;BME280;8341;42.048;24.650;2023-02-20T04:23:35;97576.22;;;12.16;51.64
16461;BME280;8341;42.048;24.650;2023-02-20T04:26:06;97583.66;;;12.16;51.70
16461;BME280;8341;42.048;24.650;2023-02-20T04:28:35;97576.41;;;12.13;51.58
16461;BME280;8341;42.048;24.650;2023-02-20T04:31:02;97571.88;;;12.10;51.71
16461;BME280;8341;42.048;24.650;2023-02-20T04:33:29;97579.34;;;12.09;51.43
16461;BME280;8341;42.048;24.650;2023-02-20T04:35:56;97576.88;;;12.11;51.17
16461;BME280;8341;42.048;24.650;2023-02-20T04:38:23;97578.88;;;12.11;50.93
16461;BME280;8341;42.048;24.650;2023-02-20T04:40:51;97586.31;;;12.10;50.94
16461;BME280;8341;42.048;24.650;2023-02-20T04:43:18;97586.03;;;12.08;50.54
16461;BME280;8341;42.048;24.650;2023-02-20T04:45:45;97597.47;;;12.07;50.40
16461;BME280;8341;42.048;24.650;2023-02-20T04:48:12;97594.34;;;11.99;50.57
16461;BME280;8341;42.048;24.650;2023-02-20T04:50:39;97588.41;;;12.01;50.60
16461;BME280;8341;42.048;24.650;2023-02-20T04:53:06;97593.59;;;11.99;51.01
16461;BME280;8341;42.048;24.650;2023-02-20T04:55:33;97606.00;;;12.00;50.75
16461;BME280;8341;42.048;24.650;2023-02-20T04:58:01;97610.16;;;11.95;50.88
16461;BME280;8341;42.048;24.650;2023-02-20T05:00:27;97605.47;;;11.96;51.00
16461;BME280;8341;42.048;24.650;2023-02-20T05:02:54;97613.00;;;11.86;51.31
16461;BME280;8341;42.048;24.650;2023-02-20T05:05:23;97619.88;;;11.81;51.50
16461;BME280;8341;42.048;24.650;2023-02-20T05:07:53;97621.28;;;11.77;51.92
16461;BME280;8341;42.048;24.650;2023-02-20T05:10:21;97617.78;;;11.76;51.52
16461;BME280;8341;42.048;24.650;2023-02-20T05:12:48;97610.56;;;11.73;51.63
16461;BME280;8341;42.048;24.650;2023-02-20T05:15:16;97622.97;;;11.74;51.96
16461;BME280;8341;42.048;24.650;2023-02-20T05:17:44;97634.38;;;11.73;51.51
16461;BME280;8341;42.048;24.650;2023-02-20T05:20:11;97629.47;;;11.77;51.18
16461;BME280;8341;42.048;24.650;2023-02-20T05:22:39;97621.50;;;11.73;51.06
16461;BME280;8341;42.048;24.650;2023-02-20T05:25:05;97626.66;;;11.71;51.33
16461;BME280;8341;42.048;24.650;2023-02-20T05:27:32;97633.50;;;11.67;51.09
16461;BME280;8341;42.048;24.650;2023-02-20T05:29:59;97636.41;;;11.63;51.46
16461;BME280;8341;42.048;24.650;2023-02-20T05:32:29;97625.41;;;11.58;51.08
16461;BME280;8341;42.048;24.650;2023-02-20T05:34:56;97626.72;;;11.62;50.76
16461;BME280;8341;42.048;24.650;2023-02-20T05:37:25;97619.44;;;11.59;50.70
16461;BME280;8341;42.048;24.650;2023-02-20T05:39:51;97619.16;;;11.57;50.49
16461;BME280;8341;42.048;24.650;2023-02-20T05:42:19;97624.41;;;11.46;50.80
16461;BME280;8341;42.048;24.650;2023-02-20T05:44:47;97625.28;;;11.52;50.77
16461;BME280;8341;42.048;24.650;2023-02-20T05:47:15;97638.84;;;11.61;50.59
16461;BME280;8341;42.048;24.650;2023-02-20T05:49:43;97638.75;;;11.56;50.57
16461;BME280;8341;42.048;24.650;2023-02-20T05:52:11;97635.84;;;11.59;50.10
16461;BME280;8341;42.048;24.650;2023-02-20T05:54:38;97643.75;;;11.57;50.09
16461;BME280;8341;42.048;24.650;2023-02-20T05:57:06;97654.97;;;11.59;50.13
16461;BME280;8341;42.048;24.650;2023-02-20T05:59:33;97666.16;;;11.61;49.99
16461;BME280;8341;42.048;24.650;2023-02-20T06:02:00;97672.66;;;11.64;49.66
16461;BME280;8341;42.048;24.650;2023-02-20T06:04:27;97680.41;;;11.65;49.61
16461;BME280;8341;42.048;24.650;2023-02-20T06:06:56;97688.28;;;11.72;49.59
16461;BME280;8341;42.048;24.650;2023-02-20T06:09:23;97688.09;;;11.76;48.94
16461;BME280;8341;42.048;24.650;2023-02-20T06:11:51;97695.72;;;11.72;48.71
16461;BME280;8341;42.048;24.650;2023-02-20T06:14:21;97715.16;;;11.88;48.26
16461;BME280;8341;42.048;24.650;2023-02-20T06:16:48;97710.03;;;11.81;48.44
16461;BME280;8341;42.048;24.650;2023-02-20T06:19:19;97717.97;;;11.94;48.07
16461;BME280;8341;42.048;24.650;2023-02-20T06:21:47;97718.84;;;12.00;46.51
16461;BME280;8341;42.048;24.650;2023-02-20T06:24:15;97729.31;;;12.02;46.41
16461;BME280;8341;42.048;24.650;2023-02-20T06:26:42;97725.63;;;12.05;46.32
16461;BME280;8341;42.048;24.650;2023-02-20T06:29:10;97714.03;;;12.10;45.56
16461;BME280;8341;42.048;24.650;2023-02-20T06:31:37;97691.78;;;12.02;45.42
16461;BME280;8341;42.048;24.650;2023-02-20T06:34:05;97719.50;;;12.10;45.14
16461;BME280;8341;42.048;24.650;2023-02-20T06:36:34;97709.31;;;12.10;44.91
16461;BME280;8341;42.048;24.650;2023-02-20T06:39:02;97712.91;;;12.16;45.31
16461;BME280;8341;42.048;24.650;2023-02-20T06:41:30;97698.88;;;12.09;44.69
16461;BME280;8341;42.048;24.650;2023-02-20T06:43:57;97709.63;;;12.27;44.33
16461;BME280;8341;42.048;24.650;2023-02-20T06:46:24;97700.50;;;12.30;44.61
16461;BME280;8341;42.048;24.650;2023-02-20T06:48:52;97703.00;;;12.33;44.13
16461;BME280;8341;42.048;24.650;2023-02-20T06:51:21;97700.19;;;12.42;44.42
16461;BME280;8341;42.048;24.650;2023-02-20T06:53:48;97707.63;;;12.42;43.89
16461;BME280;8341;42.048;24.650;2023-02-20T06:56:17;97699.13;;;12.54;43.33
16461;BME280;8341;42.048;24.650;2023-02-20T06:58:47;97703.66;;;12.57;43.13
16461;BME280;8341;42.048;24.650;2023-02-20T07:01:14;97699.50;;;12.62;42.60
16461;BME280;8341;42.048;24.650;2023-02-20T07:03:41;97715.06;;;12.71;41.96
16461;BME280;8341;42.048;24.650;2023-02-20T07:06:09;97694.47;;;12.75;41.71
16461;BME280;8341;42.048;24.650;2023-02-20T07:08:36;97698.88;;;12.87;40.85
16461;BME280;8341;42.048;24.650;2023-02-20T07:11:03;97702.47;;;12.93;41.28
16461;BME280;8341;42.048;24.650;2023-02-20T07:13:30;97704.16;;;12.91;40.17
16461;BME280;8341;42.048;24.650;2023-02-20T07:15:58;97697.00;;;12.93;40.79
16461;BME280;8341;42.048;24.650;2023-02-20T07:18:25;97695.81;;;13.00;40.92
16461;BME280;8341;42.048;24.650;2023-02-20T07:20:52;97701.09;;;13.03;41.09
16461;BME280;8341;42.048;24.650;2023-02-20T07:23:20;97715.81;;;13.06;40.94
16461;BME280;8341;42.048;24.650;2023-02-20T07:25:47;97720.72;;;13.02;40.39
16461;BME280;8341;42.048;24.650;2023-02-20T07:28:17;97721.50;;;13.02;41.03
16461;BME280;8341;42.048;24.650;2023-02-20T07:30:44;97724.97;;;13.17;40.75
16461;BME280;8341;42.048;24.650;2023-02-20T07:33:13;97720.75;;;13.16;40.69
16461;BME280;8341;42.048;24.650;2023-02-20T07:35:40;97724.84;;;13.06;41.03
16461;BME280;8341;42.048;24.650;2023-02-20T07:38:06;97727.28;;;13.04;41.10
16461;BME280;8341;42.048;24.650;2023-02-20T07:40:33;97726.69;;;13.15;41.21
16461;BME280;8341;42.048;24.650;2023-02-20T07:43:00;97722.81;;;13.22;41.14
16461;BME280;8341;42.048;24.650;2023-02-20T07:45:27;97738.13;;;13.34;40.99
16461;BME280;8341;42.048;24.650;2023-02-20T07:47:54;97722.66;;;13.31;41.69
16461;BME280;8341;42.048;24.650;2023-02-20T07:50:22;97726.50;;;13.39;41.10
16461;BME280;8341;42.048;24.650;2023-02-20T07:52:49;97727.59;;;13.47;40.82
16461;BME280;8341;42.048;24.650;2023-02-20T07:55:17;97727.06;;;13.43;40.58
16461;BME280;8341;42.048;24.650;2023-02-20T07:57:45;97717.00;;;13.54;39.61
16461;BME280;8341;42.048;24.650;2023-02-20T08:00:15;97708.91;;;13.45;39.82
16461;BME280;8341;42.048;24.650;2023-02-20T08:02:42;97690.19;;;13.44;39.59
16461;BME280;8341;42.048;24.650;2023-02-20T08:05:09;97703.34;;;13.60;39.51
16461;BME280;8341;42.048;24.650;2023-02-20T08:07:38;97698.22;;;13.67;39.28
16461;BME280;8341;42.048;24.650;2023-02-20T08:10:09;97703.69;;;13.67;38.56
16461;BME280;8341;42.048;24.650;2023-02-20T08:12:36;97695.81;;;13.75;38.46
16461;BME280;8341;42.048;24.650;2023-02-20T08:15:03;97700.47;;;13.69;38.47
16461;BME280;8341;42.048;24.650;2023-02-20T08:17:30;97695.19;;;13.65;38.29
16461;BME280;8341;42.048;24.650;2023-02-20T08:19:56;97716.50;;;13.76;38.00
16461;BME280;8341;42.048;24.650;2023-02-20T08:22:23;97712.44;;;13.92;37.31
16461;BME280;8341;42.048;24.650;2023-02-20T08:24:51;97711.81;;;13.82;36.33
16461;BME280;8341;42.048;24.650;2023-02-20T08:27:18;97724.44;;;13.94;36.62
16461;BME280;8341;42.048;24.650;2023-02-20T08:29:45;97714.59;;;14.08;35.76
16461;BME280;8341;42.048;24.650;2023-02-20T08:32:11;97707.28;;;13.79;35.26
16461;BME280;8341;42.048;24.650;2023-02-20T08:34:38;97715.50;;;13.99;34.86
16461;BME280;8341;42.048;24.650;2023-02-20T08:37:05;97730.41;;;14.18;35.60
16461;BME280;8341;42.048;24.650;2023-02-20T08:39:34;97715.16;;;14.37;35.85
16461;BME280;8341;42.048;24.650;2023-02-20T08:42:03;97717.91;;;14.37;34.41
16461;BME280;8341;42.048;24.650;2023-02-20T08:44:30;97709.22;;;14.45;33.34
16461;BME280;8341;42.048;24.650;2023-02-20T08:46:56;97712.81;;;14.30;32.82
16461;BME280;8341;42.048;24.650;2023-02-20T08:49:23;97711.09;;;14.33;33.98
16461;BME280;8341;42.048;24.650;2023-02-20T08:51:53;97709.28;;;14.50;33.87
16461;BME280;8341;42.048;24.650;2023-02-20T08:54:20;97701.59;;;14.60;33.73
16461;BME280;8341;42.048;24.650;2023-02-20T08:56:47;97684.72;;;14.72;33.89
16461;BME280;8341;42.048;24.650;2023-02-20T08:59:15;97694.78;;;14.81;32.14
16461;BME280;8341;42.048;24.650;2023-02-20T09:01:42;97699.47;;;14.75;32.09
16461;BME280;8341;42.048;24.650;2023-02-20T09:04:09;97694.69;;;14.70;31.91
16461;BME280;8341;42.048;24.650;2023-02-20T09:06:36;97691.28;;;14.80;31.69
16461;BME280;8341;42.048;24.650;2023-02-20T09:09:03;97724.44;;;14.71;31.15
16461;BME280;8341;42.048;24.650;2023-02-20T09:11:30;97712.59;;;14.60;31.40
16461;BME280;8341;42.048;24.650;2023-02-20T09:13:57;97709.69;;;14.74;32.40
16461;BME280;8341;42.048;24.650;2023-02-20T09:16:25;97703.03;;;14.81;32.38
16461;BME280;8341;42.048;24.650;2023-02-20T09:18:52;97717.63;;;14.67;30.26
16461;BME280;8341;42.048;24.650;2023-02-20T09:21:20;97717.78;;;14.83;30.11
16461;BME280;8341;42.048;24.650;2023-02-20T09:23:47;97712.69;;;14.71;31.00
16461;BME280;8341;42.048;24.650;2023-02-20T09:26:14;97730.38;;;14.70;31.02
16461;BME280;8341;42.048;24.650;2023-02-20T09:28:40;97725.66;;;14.70;31.25
16461;BME280;8341;42.048;24.650;2023-02-20T09:31:07;97742.53;;;14.89;30.63
16461;BME280;8341;42.048;24.650;2023-02-20T09:33:35;97744.63;;;15.05;29.28
16461;BME280;8341;42.048;24.650;2023-02-20T09:36:02;97737.53;;;14.93;30.62
16461;BME280;8341;42.048;24.650;2023-02-20T09:38:29;97726.75;;;14.84;28.12
16461;BME280;8341;42.048;24.650;2023-02-20T09:40:58;97738.00;;;14.86;28.87
16461;BME280;8341;42.048;24.650;2023-02-20T09:43:37;97725.59;;;14.96;29.10
16461;BME280;8341;42.048;24.650;2023-02-20T09:46:08;97718.88;;;15.02;29.36
16461;BME280;8341;42.048;24.650;2023-02-20T09:48:52;97717.69;;;15.09;27.42
16461;BME280;8341;42.048;24.650;2023-02-20T09:51:23;97710.25;;;15.21;27.34
16461;BME280;8341;42.048;24.650;2023-02-20T09:53:54;97707.03;;;15.22;28.65
16461;BME280;8341;42.048;24.650;2023-02-20T09:56:25;97708.34;;;15.38;26.84
16461;BME280;8341;42.048;24.650;2023-02-20T09:58:57;97706.19;;;15.53;26.77
16461;BME280;8341;42.048;24.650;2023-02-20T10:01:27;97697.88;;;15.42;28.07
16461;BME280;8341;42.048;24.650;2023-02-20T10:03:57;97711.44;;;15.56;28.10
16461;BME280;8341;42.048;24.650;2023-02-20T10:06:26;97700.25;;;15.65;26.10
16461;BME280;8341;42.048;24.650;2023-02-20T10:08:54;97693.50;;;15.72;24.18
16461;BME280;8341;42.048;24.650;2023-02-20T10:14:40;97696.06;;;15.81;23.46
16461;BME280;8341;42.048;24.650;2023-02-20T10:17:17;97680.22;;;15.59;23.77
16461;BME280;8341;42.048;24.650;2023-02-20T10:19:51;97692.25;;;15.68;22.57
16461;BME280;8341;42.048;24.650;2023-02-20T10:22:22;97697.78;;;15.79;21.56
16461;BME280;8341;42.048;24.650;2023-02-20T10:25:07;97694.72;;;15.60;20.54
16461;BME280;8341;42.048;24.650;2023-02-20T10:27:43;97707.47;;;15.57;20.48
16461;BME280;8341;42.048;24.650;2023-02-20T10:30:18;97726.66;;;15.46;19.31
16461;BME280;8341;42.048;24.650;2023-02-20T10:32:50;97701.00;;;15.72;20.92
16461;BME280;8341;42.048;24.650;2023-02-20T10:35:23;97714.53;;;15.75;20.90
16461;BME280;8341;42.048;24.650;2023-02-20T10:37:54;97704.47;;;15.66;20.46
16461;BME280;8341;42.048;24.650;2023-02-20T10:40:25;97696.50;;;15.69;21.21
16461;BME280;8341;42.048;24.650;2023-02-20T10:42:58;97702.78;;;15.80;20.58
16461;BME280;8341;42.048;24.650;2023-02-20T10:45:33;97716.88;;;16.10;19.85
16461;BME280;8341;42.048;24.650;2023-02-20T10:48:05;97694.06;;;15.82;20.71
16461;BME280;8341;42.048;24.650;2023-02-20T10:50:38;97704.13;;;16.07;21.61
16461;BME280;8341;42.048;24.650;2023-02-20T10:53:15;97682.09;;;16.07;21.44
16461;BME280;8341;42.048;24.650;2023-02-20T10:55:48;97695.63;;;16.16;20.16
16461;BME280;8341;42.048;24.650;2023-02-20T10:58:21;97698.88;;;16.20;21.20
16461;BME280;8341;42.048;24.650;2023-02-20T11:00:53;97688.88;;;16.17;20.79
16461;BME280;8341;42.048;24.650;2023-02-20T11:03:24;97672.59;;;15.97;19.69
16461;BME280;8341;42.048;24.650;2023-02-20T11:06:00;97690.53;;;15.76;20.03
16461;BME280;8341;42.048;24.650;2023-02-20T11:08:27;97696.88;;;16.09;21.53
16461;BME280;8341;42.048;24.650;2023-02-20T11:10:58;97688.13;;;16.22;19.65
16461;BME280;8341;42.048;24.650;2023-02-20T11:13:25;97673.34;;;16.08;19.90
16461;BME280;8341;42.048;24.650;2023-02-20T11:15:54;97704.13;;;16.29;20.74
16461;BME280;8341;42.048;24.650;2023-02-20T11:18:23;97699.41;;;16.29;20.64
16461;BME280;8341;42.048;24.650;2023-02-20T11:20:54;97675.81;;;15.95;19.28
16461;BME280;8341;42.048;24.650;2023-02-20T11:23:39;97688.56;;;15.93;20.00
16461;BME280;8341;42.048;24.650;2023-02-20T11:26:25;97678.84;;;16.03;20.58
16461;BME280;8341;42.048;24.650;2023-02-20T11:28:58;97679.09;;;16.10;20.44
16461;BME280;8341;42.048;24.650;2023-02-20T11:31:25;97667.88;;;16.25;19.80
16461;BME280;8341;42.048;24.650;2023-02-20T11:33:54;97673.88;;;16.29;19.97
16461;BME280;8341;42.048;24.650;2023-02-20T11:36:23;97681.38;;;16.40;19.03
16461;BME280;8341;42.048;24.650;2023-02-20T11:38:56;97668.38;;;16.40;20.03
16461;BME280;8341;42.048;24.650;2023-02-20T11:41:26;97675.63;;;16.43;19.46
16461;BME280;8341;42.048;24.650;2023-02-20T11:44:06;97670.63;;;16.25;20.40
16461;BME280;8341;42.048;24.650;2023-02-20T11:46:33;97669.09;;;16.46;21.10
16461;BME280;8341;42.048;24.650;2023-02-20T11:49:01;97679.63;;;16.20;19.44
16461;BME280;8341;42.048;24.650;2023-02-20T11:51:33;97678.63;;;16.45;20.83
16461;BME280;8341;42.048;24.650;2023-02-20T11:54:08;97686.13;;;16.50;19.24
16461;BME280;8341;42.048;24.650;2023-02-20T11:56:35;97672.41;;;16.61;21.12
16461;BME280;8341;42.048;24.650;2023-02-20T11:59:28;97681.91;;;16.71;19.47
16461;BME280;8341;42.048;24.650;2023-02-20T12:02:10;97679.13;;;16.27;18.57
16461;BME280;8341;42.048;24.650;2023-02-20T12:04:37;97696.38;;;16.22;19.00
16461;BME280;8341;42.048;24.650;2023-02-20T12:07:18;97691.41;;;16.48;19.58
16461;BME280;8341;42.048;24.650;2023-02-20T12:09:52;97688.13;;;16.22;20.45
16461;BME280;8341;42.048;24.650;2023-02-20T12:12:20;97694.38;;;16.34;20.10
16461;BME280;8341;42.048;24.650;2023-02-20T12:14:48;97688.63;;;16.37;19.51
16461;BME280;8341;42.048;24.650;2023-02-20T12:17:22;97677.88;;;16.39;20.62
16461;BME280;8341;42.048;24.650;2023-02-20T12:19:53;97688.16;;;16.55;21.10
16461;BME280;8341;42.048;24.650;2023-02-20T12:22:32;97676.66;;;16.79;19.48
16461;BME280;8341;42.048;24.650;2023-02-20T12:25:14;97673.13;;;16.45;20.70
16461;BME280;8341;42.048;24.650;2023-02-20T12:27:52;97681.63;;;16.31;21.31
16461;BME280;8341;42.048;24.650;2023-02-20T12:30:31;97680.63;;;16.39;21.51
16461;BME280;8341;42.048;24.650;2023-02-20T12:33:08;97678.13;;;16.41;22.00
16461;BME280;8341;42.048;24.650;2023-02-20T12:35:43;97671.41;;;16.59;20.83
16461;BME280;8341;42.048;24.650;2023-02-20T12:38:31;97665.13;;;16.47;21.11
16461;BME280;8341;42.048;24.650;2023-02-20T12:41:25;97668.63;;;16.48;21.41
16461;BME280;8341;42.048;24.650;2023-02-20T12:44:06;97675.66;;;16.65;21.59
16461;BME280;8341;42.048;24.650;2023-02-20T12:46:43;97674.41;;;16.66;21.24
16461;BME280;8341;42.048;24.650;2023-02-20T12:49:21;97663.59;;;16.79;20.94
16461;BME280;8341;42.048;24.650;2023-02-20T12:51:53;97665.63;;;16.62;21.50
16461;BME280;8341;42.048;24.650;2023-02-20T12:54:31;97667.13;;;16.52;21.17
16461;BME280;8341;42.048;24.650;2023-02-20T12:57:11;97664.09;;;16.39;20.43
16461;BME280;8341;42.048;24.650;2023-02-20T12:59:47;97646.84;;;16.44;21.09
16461;BME280;8341;42.048;24.650;2023-02-20T13:02:21;97644.84;;;16.28;21.83
16461;BME280;8341;42.048;24.650;2023-02-20T13:04:52;97649.84;;;16.24;21.06
16461;BME280;8341;42.048;24.650;2023-02-20T13:07:26;97646.59;;;16.48;22.70
16461;BME280;8341;42.048;24.650;2023-02-20T13:10:01;97663.88;;;16.54;21.19
16461;BME280;8341;42.048;24.650;2023-02-20T13:12:28;97652.63;;;16.63;22.33
16461;BME280;8341;42.048;24.650;2023-02-20T13:15:05;97654.09;;;16.69;20.60
16461;BME280;8341;42.048;24.650;2023-02-20T13:17:38;97660.41;;;16.53;20.81
16461;BME280;8341;42.048;24.650;2023-02-20T13:20:18;97656.38;;;16.60;21.26
16461;BME280;8341;42.048;24.650;2023-02-20T13:22:58;97663.59;;;16.46;21.08
16461;BME280;8341;42.048;24.650;2023-02-20T13:25:41;97664.88;;;16.45;21.27
16461;BME280;8341;42.048;24.650;2023-02-20T13:28:35;97671.13;;;16.40;20.99
16461;BME280;8341;42.048;24.650;2023-02-20T13:31:16;97673.88;;;16.12;22.04
16461;BME280;8341;42.048;24.650;2023-02-20T13:33:46;97670.34;;;16.23;21.95